Time;durP1;ratioP1;P1;durP2;ratioP2;P2;SDS_P1;SDS_P2;PMS_P1;PMS_P2;Temp;Humidity;BMP_temperature;BMP_pressure;BME280_temperature;BME280_humidity;BME280_pressure;Samples;Min_cycle;Max_cycle;Signal;HPM_P1;HPM_P2
2022/08/14 00:01:01;;;;;;;5.50;5.07;;;;;;;;;;5035046;28;20053;-64
2022/08/14 00:03:35;;;;;;;5.65;4.82;;;;;;;;;;5035011;28;20382;-64
2022/08/14 00:06:02;;;;;;;4.63;4.22;;;;;;;;;;5035024;28;20497;-63
2022/08/14 00:08:49;;;;;;;5.60;4.65;;;;;;;;;;5034938;28;20053;-63
2022/08/14 00:11:16;;;;;;;4.72;4.32;;;;;;;;;;5034927;28;20188;-64
2022/08/14 00:13:43;;;;;;;5.00;4.57;;;;;;;;;;5034746;28;20501;-64
2022/08/14 00:16:18;;;;;;;4.70;4.32;;;;;;;;;;5034924;28;20053;-63
2022/08/14 00:19:04;;;;;;;4.90;4.50;;;;;;;;;;5033627;28;20420;-64
2022/08/14 00:21:50;;;;;;;5.10;4.15;;;;;;;;;;5035004;28;20057;-64
2022/08/14 00:24:21;;;;;;;5.10;4.32;;;;;;;;;;5034927;28;20511;-64
2022/08/14 00:26:54;;;;;;;4.55;4.20;;;;;;;;;;5034657;28;20498;-64
2022/08/14 00:29:20;;;;;;;5.40;4.47;;;;;;;;;;5032499;28;20049;-64
2022/08/14 00:31:51;;;;;;;5.13;4.45;;;;;;;;;;5026485;28;20304;-64
2022/08/14 00:34:22;;;;;;;4.55;4.25;;;;;;;;;;5033916;28;20123;-64
2022/08/14 00:37:04;;;;;;;5.57;4.68;;;;;;;;;;5034755;28;20064;-63
2022/08/14 00:39:31;;;;;;;5.07;4.55;;;;;;;;;;5034595;28;20046;-64
2022/08/14 00:41:57;;;;;;;5.70;4.40;;;;;;;;;;5034231;28;20568;-64
2022/08/14 00:44:24;;;;;;;5.22;4.82;;;;;;;;;;5034220;28;20049;-63
2022/08/14 00:46:59;;;;;;;5.15;4.65;;;;;;;;;;5034568;28;20057;-64
2022/08/14 00:49:27;;;;;;;6.03;4.57;;;;;;;;;;5034101;28;20513;-64
2022/08/14 00:51:55;;;;;;;5.10;4.70;;;;;;;;;;5020333;28;20577;-64
2022/08/14 00:54:23;;;;;;;5.20;4.70;;;;;;;;;;5034479;28;20046;-63
2022/08/14 00:56:50;;;;;;;4.90;4.50;;;;;;;;;;5034009;28;20571;-64
2022/08/14 00:59:22;;;;;;;5.32;4.72;;;;;;;;;;5033984;28;20289;-64
2022/08/14 01:01:50;;;;;;;4.90;4.50;;;;;;;;;;5033062;28;20053;-63
2022/08/14 01:04:18;;;;;;;5.07;4.63;;;;;;;;;;5034237;28;20065;-64
2022/08/14 01:07:06;;;;;;;5.18;4.63;;;;;;;;;;5034380;28;20055;-63
2022/08/14 01:09:37;;;;;;;5.28;4.80;;;;;;;;;;5033743;28;20140;-64
2022/08/14 01:12:05;;;;;;;4.75;4.45;;;;;;;;;;5033731;28;20048;-64
2022/08/14 01:14:33;;;;;;;4.88;4.57;;;;;;;;;;5033721;28;20049;-64
2022/08/14 01:17:01;;;;;;;5.30;4.90;;;;;;;;;;5033951;28;20107;-64
2022/08/14 01:22:14;;;;;;;5.22;4.82;;;;;;;;;;5033849;28;20056;-64
2022/08/14 01:24:45;;;;;;;5.00;4.70;;;;;;;;;;5033858;28;20440;-64
2022/08/14 01:27:17;;;;;;;10.05;4.90;;;;;;;;;;5033625;28;20065;-64
2022/08/14 01:29:50;;;;;;;5.03;4.53;;;;;;;;;;5032212;28;20503;-64
2022/08/14 01:32:30;;;;;;;5.47;4.93;;;;;;;;;;5033337;28;20073;-64
2022/08/14 01:35:06;;;;;;;5.88;5.30;;;;;;;;;;5033320;28;20568;-64
2022/08/14 01:37:53;;;;;;;5.85;5.35;;;;;;;;;;5033474;28;20068;-64
2022/08/14 01:40:26;;;;;;;4.85;4.45;;;;;;;;;;5033360;28;20113;-64
2022/08/14 01:43:14;;;;;;;5.03;4.63;;;;;;;;;;5033173;28;20060;-64
2022/08/14 01:45:42;;;;;;;5.60;5.10;;;;;;;;;;5033216;28;20057;-64
2022/08/14 01:48:14;;;;;;;5.75;5.25;;;;;;;;;;5033356;28;20045;-64
2022/08/14 01:50:46;;;;;;;6.00;4.90;;;;;;;;;;5033078;28;20478;-64
2022/08/14 01:53:12;;;;;;;5.27;4.87;;;;;;;;;;5032950;28;20579;-64
2022/08/14 01:55:40;;;;;;;5.75;5.32;;;;;;;;;;5032950;28;20042;-64
2022/08/14 01:58:11;;;;;;;5.63;5.15;;;;;;;;;;5033165;28;20049;-64
2022/08/14 02:00:56;;;;;;;5.43;5.03;;;;;;;;;;5032831;28;20045;-64
2022/08/14 02:03:29;;;;;;;5.18;4.78;;;;;;;;;;5033017;28;20057;-64
2022/08/14 02:06:00;;;;;;;5.47;5.00;;;;;;;;;;5032805;28;20129;-64
2022/08/14 02:08:47;;;;;;;5.93;5.10;;;;;;;;;;5032748;28;20063;-64
2022/08/14 02:11:21;;;;;;;5.50;5.03;;;;;;;;;;5032677;28;20057;-64
2022/08/14 02:13:59;;;;;;;5.35;4.97;;;;;;;;;;5032538;28;20537;-64
2022/08/14 02:16:38;;;;;;;5.30;4.90;;;;;;;;;;5032622;28;20053;-64
2022/08/14 02:19:07;;;;;;;5.20;4.90;;;;;;;;;;5032449;28;20051;-64
2022/08/14 02:21:35;;;;;;;6.25;5.38;;;;;;;;;;5032429;28;20080;-64
2022/08/14 02:24:09;;;;;;;5.63;5.03;;;;;;;;;;5032449;28;20045;-64
2022/08/14 02:26:58;;;;;;;5.53;5.00;;;;;;;;;;5031453;28;20394;-64
2022/08/14 02:29:45;;;;;;;5.90;5.50;;;;;;;;;;5031481;28;20394;-64
2022/08/14 02:32:25;;;;;;;5.25;4.65;;;;;;;;;;5032262;28;20037;-64
2022/08/14 02:35:17;;;;;;;5.68;4.97;;;;;;;;;;5032423;28;20053;-64
2022/08/14 02:37:45;;;;;;;5.50;5.05;;;;;;;;;;5032444;28;20049;-64
2022/08/14 02:40:14;;;;;;;6.10;5.55;;;;;;;;;;5032207;28;20088;-64
2022/08/14 02:42:42;;;;;;;5.40;4.90;;;;;;;;;;5032057;28;20567;-64
2022/08/14 02:45:23;;;;;;;5.57;5.13;;;;;;;;;;5030909;28;20061;-64
2022/08/14 02:48:06;;;;;;;5.50;5.03;;;;;;;;;;5032346;28;20056;-64
2022/08/14 02:50:53;;;;;;;5.25;4.95;;;;;;;;;;5032166;28;20053;-64
2022/08/14 02:53:19;;;;;;;5.73;5.23;;;;;;;;;;5032010;28;20049;-64
2022/08/14 02:55:46;;;;;;;5.53;5.00;;;;;;;;;;5031804;28;20084;-64
2022/08/14 02:58:12;;;;;;;5.73;4.97;;;;;;;;;;5032089;28;20126;-64
2022/08/14 03:00:57;;;;;;;5.35;4.63;;;;;;;;;;5031836;28;20060;-64
2022/08/14 03:03:24;;;;;;;5.40;5.00;;;;;;;;;;5031943;28;20424;-64
2022/08/14 03:05:51;;;;;;;5.78;5.28;;;;;;;;;;5031854;28;20056;-64
2022/08/14 03:08:19;;;;;;;5.35;4.93;;;;;;;;;;5031670;28;20049;-64
2022/08/14 03:10:46;;;;;;;5.43;5.03;;;;;;;;;;5031721;28;20049;-64
2022/08/14 03:13:15;;;;;;;5.80;5.28;;;;;;;;;;5031890;28;20045;-64
2022/08/14 03:15:54;;;;;;;5.70;5.20;;;;;;;;;;5031823;28;20045;-64
2022/08/14 03:18:27;;;;;;;6.05;5.65;;;;;;;;;;5031968;28;20077;-64
2022/08/14 03:20:56;;;;;;;5.30;4.90;;;;;;;;;;5031892;28;20413;-64
2022/08/14 03:23:23;;;;;;;5.40;4.90;;;;;;;;;;5031272;28;20092;-64
2022/08/14 03:25:51;;;;;;;6.55;5.05;;;;;;;;;;5031682;28;20064;-64
2022/08/14 03:28:17;;;;;;;4.88;4.50;;;;;;;;;;5031813;28;20095;-64
2022/08/14 03:30:59;;;;;;;5.60;5.15;;;;;;;;;;5031813;28;20057;-64
2022/08/14 03:33:29;;;;;;;5.68;5.28;;;;;;;;;;5031780;28;20050;-64
2022/08/14 03:36:08;;;;;;;5.68;5.18;;;;;;;;;;5030189;28;20048;-64
2022/08/14 03:38:57;;;;;;;5.35;4.95;;;;;;;;;;5031602;28;20049;-64
2022/08/14 03:41:43;;;;;;;5.57;5.18;;;;;;;;;;5031340;28;20083;-64
2022/08/14 03:44:10;;;;;;;5.38;5.03;;;;;;;;;;5030416;28;20108;-64
2022/08/14 03:46:56;;;;;;;5.85;5.35;;;;;;;;;;5031601;28;20147;-64
2022/08/14 03:49:23;;;;;;;5.85;5.45;;;;;;;;;;5031489;28;20132;-64
2022/08/14 03:51:54;;;;;;;8.23;5.82;;;;;;;;;;5031409;28;20041;-64
2022/08/14 03:54:23;;;;;;;5.60;5.10;;;;;;;;;;5029986;28;20136;-64
2022/08/14 03:56:49;;;;;;;5.75;5.25;;;;;;;;;;5030282;28;20042;-64
2022/08/14 03:59:18;;;;;;;5.75;5.25;;;;;;;;;;5031249;28;20102;-64
2022/08/14 04:01:48;;;;;;;5.70;5.30;;;;;;;;;;5031220;28;20164;-64
2022/08/14 04:04:27;;;;;;;5.82;5.32;;;;;;;;;;5031271;28;20057;-64
2022/08/14 04:06:55;;;;;;;5.53;5.13;;;;;;;;;;5031174;28;20084;-64
2022/08/14 04:09:24;;;;;;;6.35;5.85;;;;;;;;;;5031107;28;20099;-64
2022/08/14 04:11:52;;;;;;;5.57;5.28;;;;;;;;;;5030929;28;20045;-64
2022/08/14 04:14:19;;;;;;;5.90;5.50;;;;;;;;;;5031419;28;20081;-64
2022/08/14 04:16:46;;;;;;;5.97;5.47;;;;;;;;;;5031346;28;20042;-64
2022/08/14 04:19:15;;;;;;;6.75;5.13;;;;;;;;;;5031382;28;20133;-64
2022/08/14 04:21:41;;;;;;;5.40;5.10;;;;;;;;;;5030999;28;20545;-64
2022/08/14 04:24:28;;;;;;;5.38;5.00;;;;;;;;;;5030997;28;20049;-64
2022/08/14 04:26:57;;;;;;;5.13;4.70;;;;;;;;;;5030928;28;20576;-64
2022/08/14 04:29:23;;;;;;;5.55;5.15;;;;;;;;;;5031220;28;20083;-64
2022/08/14 04:31:51;;;;;;;5.50;5.10;;;;;;;;;;5031148;28;20128;-64
2022/08/14 04:34:39;;;;;;;6.20;5.70;;;;;;;;;;5030921;28;20052;-64
2022/08/14 04:45:31;;;;;;;5.50;5.20;;;;;;;;;;5034505;28;20187;-64
2022/08/14 04:48:13;;;;;;;6.18;5.78;;;;;;;;;;5034533;28;20053;-64
2022/08/14 04:51:00;;;;;;;6.47;5.80;;;;;;;;;;5034070;28;20049;-64
2022/08/14 04:53:29;;;;;;;5.93;5.43;;;;;;;;;;5034537;28;20091;-64
2022/08/14 04:56:02;;;;;;;5.97;5.43;;;;;;;;;;5034472;28;20041;-64
2022/08/14 04:58:32;;;;;;;5.68;5.28;;;;;;;;;;5034706;28;20041;-64
2022/08/14 05:01:00;;;;;;;6.00;5.50;;;;;;;;;;5034021;28;20076;-64
2022/08/14 05:03:28;;;;;;;5.80;5.38;;;;;;;;;;5034199;28;20084;-65
2022/08/14 05:05:57;;;;;;;6.00;5.50;;;;;;;;;;5034116;28;20053;-64
2022/08/14 05:08:23;;;;;;;6.70;5.40;;;;;;;;;;5032828;28;20057;-64
2022/08/14 05:11:10;;;;;;;6.07;5.57;;;;;;;;;;5033432;28;20141;-64
2022/08/14 05:13:39;;;;;;;6.38;5.78;;;;;;;;;;5033705;28;20099;-65
2022/08/14 05:16:28;;;;;;;6.47;5.80;;;;;;;;;;5033901;28;20050;-64
2022/08/14 05:18:54;;;;;;;7.13;5.28;;;;;;;;;;5034042;28;20049;-64
2022/08/14 05:21:41;;;;;;;6.18;5.68;;;;;;;;;;5033776;28;20416;-64
2022/08/14 05:24:26;;;;;;;5.68;5.18;;;;;;;;;;5033638;28;20095;-64
2022/08/14 05:26:53;;;;;;;5.25;4.78;;;;;;;;;;5033811;28;20455;-65
2022/08/14 05:29:20;;;;;;;6.00;5.53;;;;;;;;;;5033425;28;20067;-64
2022/08/14 05:31:47;;;;;;;5.38;4.88;;;;;;;;;;5033428;28;20073;-64
2022/08/14 05:34:15;;;;;;;5.97;5.40;;;;;;;;;;5033368;28;20494;-64
2022/08/14 05:36:44;;;;;;;5.40;4.97;;;;;;;;;;5033352;28;20099;-64
2022/08/14 05:39:24;;;;;;;5.50;5.10;;;;;;;;;;5033562;28;20054;-64
2022/08/14 05:41:50;;;;;;;5.95;5.38;;;;;;;;;;5033583;28;20059;-64
2022/08/14 05:44:19;;;;;;;5.65;5.18;;;;;;;;;;5033453;28;20126;-64
2022/08/14 05:46:46;;;;;;;5.33;4.93;;;;;;;;;;5032916;28;20068;-64
2022/08/14 05:49:13;;;;;;;7.47;5.88;;;;;;;;;;5033273;28;20045;-64
2022/08/14 05:51:40;;;;;;;7.18;6.45;;;;;;;;;;5033119;28;20493;-65
2022/08/14 05:54:06;;;;;;;5.28;4.85;;;;;;;;;;5031852;28;20049;-64
2022/08/14 05:56:39;;;;;;;6.53;5.90;;;;;;;;;;5033055;28;20140;-64
2022/08/14 05:59:05;;;;;;;6.57;5.93;;;;;;;;;;5033169;28;20051;-65
2022/08/14 06:01:33;;;;;;;9.93;7.25;;;;;;;;;;5031888;28;20283;-64
2022/08/14 06:04:00;;;;;;;5.55;5.13;;;;;;;;;;5033054;28;20103;-64
2022/08/14 06:06:30;;;;;;;6.20;5.60;;;;;;;;;;5033074;28;20049;-65
2022/08/14 06:09:03;;;;;;;5.70;5.20;;;;;;;;;;5033137;28;20064;-64
2022/08/14 06:11:30;;;;;;;5.20;4.80;;;;;;;;;;5032542;28;20054;-65
2022/08/14 06:13:57;;;;;;;5.32;4.95;;;;;;;;;;5032589;28;20053;-64
2022/08/14 06:16:24;;;;;;;5.53;5.03;;;;;;;;;;5033113;28;20053;-64
2022/08/14 06:18:51;;;;;;;5.75;5.25;;;;;;;;;;5032802;28;20041;-64
2022/08/14 06:21:18;;;;;;;;;;;;;;;;;;5033145;28;20484;-65
2022/08/14 06:23:45;;;;;;;6.97;5.40;;;;;;;;;;5032427;28;20332;-64
2022/08/14 06:26:14;;;;;;;5.57;5.10;;;;;;;;;;5032686;28;20085;-64
2022/08/14 06:28:45;;;;;;;5.80;5.30;;;;;;;;;;5031440;28;20059;-64
2022/08/14 06:31:12;;;;;;;6.20;5.60;;;;;;;;;;5032577;28;20079;-64
2022/08/14 06:33:39;;;;;;;5.85;5.30;;;;;;;;;;5032224;28;20502;-64
2022/08/14 06:36:25;;;;;;;6.32;5.75;;;;;;;;;;5032396;28;20052;-65
2022/08/14 06:38:52;;;;;;;9.35;5.85;;;;;;;;;;5032451;28;20049;-64
2022/08/14 06:41:19;;;;;;;6.15;5.70;;;;;;;;;;5032400;28;20045;-64
2022/08/14 06:44:06;;;;;;;6.55;6.00;;;;;;;;;;5026614;28;20148;-65
2022/08/14 06:46:35;;;;;;;6.25;5.75;;;;;;;;;;5028622;28;20045;-66
2022/08/14 06:49:03;;;;;;;6.32;5.93;;;;;;;;;;5029620;28;20387;-66
2022/08/14 06:51:30;;;;;;;;;;;;;;;;;;5019963;28;20045;-66
2022/08/14 06:54:10;;;;;;;5.55;5.05;;;;;;;;;;5031540;28;20348;-65
2022/08/14 06:56:37;;;;;;;5.20;4.82;;;;;;;;;;5025234;28;20141;-65
2022/08/14 06:59:04;;;;;;;6.20;5.70;;;;;;;;;;5024427;28;20045;-65
2022/08/14 07:07:06;;;;;;;6.13;5.57;;;;;;;;;;5031453;28;20053;-65
2022/08/14 07:09:34;;;;;;;5.80;4.93;;;;;;;;;;5031216;28;20053;-65
2022/08/14 07:12:09;;;;;;;5.57;4.93;;;;;;;;;;5031053;28;20505;-64
2022/08/14 07:14:56;;;;;;;5.28;4.88;;;;;;;;;;5023248;28;20054;-65
2022/08/14 07:17:27;;;;;;;6.47;5.03;;;;;;;;;;5031187;28;20053;-66
2022/08/14 07:19:57;;;;;;;6.70;4.65;;;;;;;;;;5031133;28;20572;-65
2022/08/14 07:22:24;;;;;;;5.18;4.47;;;;;;;;;;5031356;28;20061;-65
2022/08/14 07:24:58;;;;;;;4.40;4.10;;;;;;;;;;5031376;28;20042;-65
2022/08/14 07:27:25;;;;;;;4.90;4.43;;;;;;;;;;5031297;28;20041;-65
2022/08/14 07:30:00;;;;;;;5.15;4.35;;;;;;;;;;5031186;28;20057;-66
2022/08/14 07:32:28;;;;;;;4.10;3.70;;;;;;;;;;5031090;28;20042;-65
2022/08/14 07:34:59;;;;;;;3.75;3.45;;;;;;;;;;5030944;28;20049;-66
2022/08/14 07:37:26;;;;;;;4.60;3.30;;;;;;;;;;5031095;28;20081;-67
2022/08/14 07:39:52;;;;;;;3.72;3.30;;;;;;;;;;5030694;28;20314;-66
2022/08/14 07:42:19;;;;;;;4.97;2.97;;;;;;;;;;5030598;28;20050;-67
2022/08/14 07:44:48;;;;;;;3.30;3.00;;;;;;;;;;5031161;28;20049;-66
2022/08/14 07:47:16;;;;;;;3.30;2.95;;;;;;;;;;5029094;28;20045;-66
2022/08/14 07:49:49;;;;;;;3.78;2.85;;;;;;;;;;5030950;28;20405;-66
2022/08/14 07:52:20;;;;;;;2.95;2.75;;;;;;;;;;5025237;28;20092;-65
2022/08/14 07:54:56;;;;;;;4.32;3.00;;;;;;;;;;5031101;28;20045;-65
2022/08/14 07:57:23;;;;;;;4.20;2.90;;;;;;;;;;5030826;28;20520;-66
2022/08/14 07:59:50;;;;;;;5.03;2.55;;;;;;;;;;5030656;28;20045;-65
2022/08/14 08:02:17;;;;;;;3.15;2.72;;;;;;;;;;5029708;28;20119;-66
2022/08/14 08:04:49;;;;;;;3.90;2.60;;;;;;;;;;5031042;28;20053;-65
2022/08/14 08:07:20;;;;;;;3.30;2.65;;;;;;;;;;5030658;28;20060;-64
2022/08/14 08:09:49;;;;;;;4.20;2.40;;;;;;;;;;5030930;28;20478;-65
2022/08/14 08:12:19;;;;;;;3.97;2.60;;;;;;;;;;5034416;28;20075;-64
2022/08/14 08:14:50;;;;;;;2.72;2.50;;;;;;;;;;5034640;28;20549;-64
2022/08/14 08:17:28;;;;;;;4.05;2.50;;;;;;;;;;5033908;28;20053;-63
2022/08/14 08:20:00;;;;;;;2.35;2.10;;;;;;;;;;5032577;28;20537;-63
2022/08/14 08:22:27;;;;;;;2.28;2.03;;;;;;;;;;5033375;28;20045;-64
2022/08/14 08:24:58;;;;;;;4.45;2.30;;;;;;;;;;5034455;28;20072;-64
2022/08/14 08:27:26;;;;;;;2.67;2.00;;;;;;;;;;5033457;28;20045;-62
2022/08/14 08:29:52;;;;;;;;;;;;;;;;;;5034364;28;20079;-64
2022/08/14 08:32:19;;;;;;;2.72;1.88;;;;;;;;;;5034464;28;19983;-64
2022/08/14 08:34:45;;;;;;;;;;;;;;;;;;5034782;28;20131;-63
2022/08/14 08:37:12;;;;;;;3.15;2.00;;;;;;;;;;5033599;28;19929;-64
2022/08/14 08:39:46;;;;;;;2.60;1.90;;;;;;;;;;5033530;28;20057;-64
2022/08/14 08:42:29;;;;;;;4.55;1.90;;;;;;;;;;5032911;28;20084;-65
2022/08/14 08:45:04;;;;;;;2.60;2.00;;;;;;;;;;5033934;28;20045;-64
2022/08/14 08:47:40;;;;;;;3.10;1.98;;;;;;;;;;5031830;28;20405;-64
2022/08/14 08:50:18;;;;;;;3.08;2.08;;;;;;;;;;5033959;28;20053;-65
2022/08/14 08:52:57;;;;;;;2.05;1.73;;;;;;;;;;5034139;28;20135;-63
2022/08/14 08:55:25;;;;;;;3.13;1.80;;;;;;;;;;5033630;28;20080;-64
2022/08/14 08:57:53;;;;;;;2.22;1.80;;;;;;;;;;5015947;28;20064;-64
2022/08/14 09:00:19;;;;;;;1.73;1.63;;;;;;;;;;5033486;28;20073;-65
2022/08/14 09:02:53;;;;;;;1.95;1.65;;;;;;;;;;5033248;28;20489;-63
2022/08/14 09:05:22;;;;;;;1.92;1.55;;;;;;;;;;5033494;28;20135;-64
2022/08/14 09:07:48;;;;;;;1.60;1.50;;;;;;;;;;5030514;28;20073;-64
2022/08/14 09:10:22;;;;;;;2.03;1.75;;;;;;;;;;5030801;28;20512;-65
2022/08/14 09:12:48;;;;;;;2.70;1.70;;;;;;;;;;5026827;28;20077;-65
2022/08/14 09:15:17;;;;;;;1.70;1.60;;;;;;;;;;5027103;28;20049;-65
2022/08/14 09:17:44;;;;;;;1.50;1.40;;;;;;;;;;5032480;28;20049;-65
2022/08/14 09:20:14;;;;;;;1.73;1.63;;;;;;;;;;5033839;28;20223;-64
2022/08/14 09:22:55;;;;;;;3.60;1.60;;;;;;;;;;5033095;28;20049;-65
2022/08/14 09:25:21;;;;;;;3.08;1.60;;;;;;;;;;5033569;28;20088;-64
2022/08/14 09:28:08;;;;;;;3.42;1.50;;;;;;;;;;5033777;28;20056;-64
2022/08/14 09:30:37;;;;;;;1.80;1.63;;;;;;;;;;5032079;28;20076;-65
2022/08/14 09:33:34;;;;;;;1.48;1.38;;;;;;;;;;5033561;28;20063;-64
2022/08/14 09:36:33;;;;;;;1.30;1.20;;;;;;;;;;5031322;28;20144;-63
2022/08/14 09:39:00;;;;;;;3.47;1.50;;;;;;;;;;5020055;28;20046;-63
2022/08/14 09:41:41;;;;;;;4.07;1.55;;;;;;;;;;5032995;28;20114;-63
2022/08/14 09:44:44;;;;;;;2.65;1.45;;;;;;;;;;5033787;28;20057;-67
2022/08/14 09:47:15;;;;;;;1.52;1.27;;;;;;;;;;5030608;28;20064;-65
2022/08/14 09:49:42;;;;;;;1.42;1.33;;;;;;;;;;5032695;28;20506;-64
2022/08/14 09:52:19;;;;;;;3.53;1.30;;;;;;;;;;5033362;28;20068;-64
2022/08/14 09:54:59;;;;;;;1.67;1.30;;;;;;;;;;5033278;28;20545;-65
2022/08/14 09:57:29;;;;;;;1.20;1.20;;;;;;;;;;5032539;28;20045;-66
2022/08/14 09:59:56;;;;;;;1.77;1.20;;;;;;;;;;5020393;28;20489;-65
2022/08/14 10:02:30;;;;;;;1.30;1.20;;;;;;;;;;5032832;28;20068;-66
2022/08/14 10:04:59;;;;;;;1.67;1.10;;;;;;;;;;5031102;28;20136;-66
2022/08/14 10:07:33;;;;;;;3.50;1.23;;;;;;;;;;5032499;28;20041;-65
2022/08/14 10:10:01;;;;;;;1.40;1.13;;;;;;;;;;5032537;28;20122;-64
2022/08/14 10:12:48;;;;;;;1.27;1.00;;;;;;;;;;5020950;28;20051;-65
2022/08/14 10:15:19;;;;;;;1.88;0.90;;;;;;;;;;5032680;28;20505;-65
2022/08/14 10:17:47;;;;;;;1.23;1.02;;;;;;;;;;5032461;28;20045;-65
2022/08/14 10:20:21;;;;;;;3.08;1.08;;;;;;;;;;5032889;28;20057;-65
2022/08/14 10:23:11;;;;;;;1.73;1.10;;;;;;;;;;5032437;28;20045;-65
2022/08/14 10:25:49;;;;;;;2.80;1.08;;;;;;;;;;5032270;28;20055;-65
2022/08/14 10:28:17;;;;;;;1.67;1.15;;;;;;;;;;5032245;28;20053;-65
2022/08/14 10:31:14;;;;;;;1.98;1.00;;;;;;;;;;5029992;28;20048;-65
2022/08/14 10:33:40;;;;;;;1.35;0.82;;;;;;;;;;5031077;28;20457;-65
2022/08/14 10:36:07;;;;;;;4.88;0.98;;;;;;;;;;5032574;28;20057;-65
2022/08/14 10:38:41;;;;;;;1.05;0.90;;;;;;;;;;5032153;28;20111;-66
2022/08/14 10:41:16;;;;;;;2.90;1.00;;;;;;;;;;5032022;28;20057;-66
2022/08/14 10:44:03;;;;;;;1.45;1.10;;;;;;;;;;5030570;28;20053;-65
2022/08/14 10:46:38;;;;;;;1.52;0.90;;;;;;;;;;5032190;28;20456;-66
2022/08/14 10:49:27;;;;;;;2.40;0.63;;;;;;;;;;5031570;28;20053;-65
2022/08/14 10:51:54;;;;;;;1.58;0.70;;;;;;;;;;5030746;28;20075;-65
2022/08/14 10:54:30;;;;;;;2.25;0.77;;;;;;;;;;5030579;28;20053;-66
2022/08/14 10:57:11;;;;;;;0.60;0.60;;;;;;;;;;5029012;28;20072;-64
2022/08/14 10:59:57;;;;;;;0.85;0.80;;;;;;;;;;5029632;28;20051;-66
2022/08/14 11:02:28;;;;;;;1.20;0.70;;;;;;;;;;5031386;28;20485;-65
2022/08/14 11:05:17;;;;;;;2.03;0.60;;;;;;;;;;5030823;28;20136;-65
2022/08/14 11:07:53;;;;;;;4.85;2.45;;;;;;;;;;5030965;28;20464;-65
2022/08/14 11:10:24;;;;;;;0.85;0.63;;;;;;;;;;5031318;28;20045;-65
2022/08/14 11:12:56;;;;;;;0.60;0.60;;;;;;;;;;5031210;28;20136;-66
2022/08/14 11:15:26;;;;;;;1.23;0.52;;;;;;;;;;5030481;28;20081;-64
2022/08/14 11:17:53;;;;;;;0.43;0.43;;;;;;;;;;5030822;28;20054;-63
2022/08/14 11:20:21;;;;;;;2.92;0.52;;;;;;;;;;5031409;28;20045;-65
2022/08/14 11:22:56;;;;;;;1.88;0.50;;;;;;;;;;5030824;28;20492;-64
2022/08/14 11:25:25;;;;;;;0.95;0.40;;;;;;;;;;5028537;28;20057;-65
2022/08/14 11:28:10;;;;;;;0.80;0.60;;;;;;;;;;5030963;28;20041;-64
2022/08/14 11:30:46;;;;;;;0.63;0.50;;;;;;;;;;5031312;28;20053;-64
2022/08/14 11:33:23;;;;;;;2.90;0.57;;;;;;;;;;5029204;28;20052;-65
2022/08/14 11:35:49;;;;;;;0.90;0.60;;;;;;;;;;5030883;28;20045;-64
2022/08/14 11:38:18;;;;;;;1.60;0.60;;;;;;;;;;5028888;28;20092;-64
2022/08/14 11:40:45;;;;;;;0.82;0.50;;;;;;;;;;5030950;28;20136;-65
2022/08/14 11:43:13;;;;;;;1.02;0.50;;;;;;;;;;5030559;28;20502;-65
2022/08/14 11:45:43;;;;;;;1.45;0.60;;;;;;;;;;5032494;28;20067;-64
2022/08/14 11:48:20;;;;;;;1.13;0.50;;;;;;;;;;5034361;28;20099;-66
2022/08/14 11:51:19;;;;;;;0.85;0.50;;;;;;;;;;5034188;28;20055;-65
2022/08/14 11:53:54;;;;;;;1.02;0.55;;;;;;;;;;5034422;28;20498;-65
2022/08/14 11:56:20;;;;;;;0.93;0.70;;;;;;;;;;5027246;28;20085;-65
2022/08/14 11:58:55;;;;;;;0.55;0.55;;;;;;;;;;5026189;28;20053;-65
2022/08/14 12:01:27;;;;;;;1.40;0.70;;;;;;;;;;5029863;28;20053;-65
2022/08/14 12:03:57;;;;;;;0.55;0.55;;;;;;;;;;5028197;28;20057;-65
2022/08/14 12:06:27;;;;;;;1.33;0.60;;;;;;;;;;5034569;28;20065;-63
2022/08/14 12:09:05;;;;;;;1.63;0.60;;;;;;;;;;5034933;28;20128;-64
2022/08/14 12:11:41;;;;;;;0.65;0.63;;;;;;;;;;5034370;28;20058;-65
2022/08/14 12:14:13;;;;;;;1.38;0.70;;;;;;;;;;5033360;28;20041;-66
2022/08/14 12:17:07;;;;;;;0.70;0.70;;;;;;;;;;5033175;28;20060;-65
2022/08/14 12:19:52;;;;;;;2.72;0.80;;;;;;;;;;5034360;28;20045;-66
2022/08/14 12:22:35;;;;;;;2.33;0.80;;;;;;;;;;5034394;28;20519;-64
2022/08/14 12:25:05;;;;;;;1.88;0.90;;;;;;;;;;5034545;28;20057;-65
2022/08/14 12:27:43;;;;;;;3.17;0.73;;;;;;;;;;5034538;28;20386;-65
2022/08/14 12:30:28;;;;;;;0.60;0.60;;;;;;;;;;5034403;28;20439;-65
2022/08/14 12:33:07;;;;;;;1.58;0.80;;;;;;;;;;5034005;28;20049;-65
2022/08/14 12:35:38;;;;;;;1.15;1.02;;;;;;;;;;5033934;28;20555;-66
2022/08/14 12:38:05;;;;;;;0.70;0.70;;;;;;;;;;5032080;28;20049;-65
2022/08/14 12:40:32;;;;;;;6.30;1.00;;;;;;;;;;5033917;28;20081;-64
2022/08/14 12:43:04;;;;;;;2.13;0.90;;;;;;;;;;5033897;28;20128;-65
2022/08/14 12:45:33;;;;;;;1.15;0.82;;;;;;;;;;5034138;28;20057;-65
2022/08/14 12:48:00;;;;;;;1.88;0.70;;;;;;;;;;5033971;28;20050;-63
2022/08/14 12:50:50;;;;;;;1.85;1.05;;;;;;;;;;5033499;28;20053;-63
2022/08/14 12:53:17;;;;;;;0.88;0.75;;;;;;;;;;5019975;28;20140;-63
2022/08/14 12:55:44;;;;;;;2.15;0.77;;;;;;;;;;5033908;28;20080;-64
2022/08/14 12:58:30;;;;;;;1.20;0.70;;;;;;;;;;5033312;28;20052;-63
2022/08/14 13:01:21;;;;;;;1.63;0.68;;;;;;;;;;5033760;28;20136;-63
2022/08/14 13:03:49;;;;;;;0.60;0.60;;;;;;;;;;5033887;28;20049;-63
2022/08/14 13:06:18;;;;;;;1.75;0.60;;;;;;;;;;5033380;28;20049;-63
2022/08/14 13:08:44;;;;;;;2.08;0.60;;;;;;;;;;5033646;28;20410;-63
2022/08/14 13:11:18;;;;;;;1.33;0.65;;;;;;;;;;5033126;28;20057;-62
2022/08/14 13:13:49;;;;;;;1.20;0.68;;;;;;;;;;5033691;28;20049;-63
2022/08/14 13:16:18;;;;;;;0.82;0.60;;;;;;;;;;5033257;28;20042;-63
2022/08/14 13:19:03;;;;;;;1.25;0.70;;;;;;;;;;5033291;28;20049;-64
2022/08/14 13:21:35;;;;;;;0.73;0.73;;;;;;;;;;5030892;28;20049;-64
2022/08/14 13:24:23;;;;;;;0.70;0.70;;;;;;;;;;5029428;28;20493;-64
2022/08/14 13:26:55;;;;;;;0.88;0.88;;;;;;;;;;5023174;28;20053;-64
2022/08/14 13:29:23;;;;;;;1.02;0.77;;;;;;;;;;5033153;28;20084;-64
2022/08/14 13:31:53;;;;;;;1.50;0.70;;;;;;;;;;5033231;28;20045;-63
2022/08/14 13:34:21;;;;;;;2.05;0.77;;;;;;;;;;5028828;28;20077;-64
2022/08/14 13:36:50;;;;;;;1.55;0.80;;;;;;;;;;5030166;28;20513;-63
2022/08/14 13:39:31;;;;;;;0.70;0.70;;;;;;;;;;5031958;28;20084;-63
2022/08/14 13:42:10;;;;;;;0.70;0.70;;;;;;;;;;5032456;28;20056;-63
2022/08/14 13:44:40;;;;;;;0.80;0.70;;;;;;;;;;5032399;28;20092;-64
2022/08/14 13:47:08;;;;;;;0.68;0.57;;;;;;;;;;5032282;28;20103;-62
2022/08/14 13:49:36;;;;;;;1.23;0.75;;;;;;;;;;5032107;28;20085;-63
2022/08/14 13:52:06;;;;;;;2.10;0.90;;;;;;;;;;5029578;28;20080;-63
2022/08/14 13:54:56;;;;;;;0.50;0.50;;;;;;;;;;5032189;28;20057;-62
2022/08/14 13:57:23;;;;;;;0.93;0.50;;;;;;;;;;5031932;28;20069;-62
2022/08/14 13:59:59;;;;;;;0.73;0.60;;;;;;;;;;5030381;28;20430;-63
2022/08/14 14:02:28;;;;;;;1.30;0.70;;;;;;;;;;5030842;28;20173;-63
2022/08/14 14:05:00;;;;;;;2.38;0.80;;;;;;;;;;5030739;28;20509;-63
2022/08/14 14:07:27;;;;;;;0.60;0.57;;;;;;;;;;5030975;28;20057;-63
2022/08/14 14:10:00;;;;;;;2.05;0.65;;;;;;;;;;5030743;28;20060;-62
2022/08/14 14:12:36;;;;;;;0.85;0.70;;;;;;;;;;5030460;28;20579;-63
2022/08/14 14:15:08;;;;;;;1.38;0.57;;;;;;;;;;5032166;28;20049;-63
2022/08/14 14:17:35;;;;;;;1.38;0.57;;;;;;;;;;5031369;28;20056;-63
2022/08/14 14:20:05;;;;;;;1.35;0.60;;;;;;;;;;5031384;28;20129;-63
2022/08/14 14:22:36;;;;;;;3.03;0.60;;;;;;;;;;5031849;28;20057;-63
2022/08/14 14:25:24;;;;;;;1.45;0.60;;;;;;;;;;5031678;28;20072;-62
2022/08/14 14:28:13;;;;;;;1.25;0.68;;;;;;;;;;5030853;28;20092;-63
2022/08/14 14:30:42;;;;;;;6.82;1.13;;;;;;;;;;5031618;28;20049;-63
2022/08/14 14:33:19;;;;;;;1.25;0.60;;;;;;;;;;5031243;28;20084;-63
2022/08/14 14:36:06;;;;;;;2.33;0.60;;;;;;;;;;5029285;28;20045;-63
2022/08/14 14:38:39;;;;;;;2.67;0.70;;;;;;;;;;5030627;28;20042;-63
2022/08/14 14:41:07;;;;;;;0.47;0.47;;;;;;;;;;5031625;28;20119;-64
2022/08/14 14:43:34;;;;;;;0.80;0.60;;;;;;;;;;5029108;28;20072;-64
2022/08/14 14:46:04;;;;;;;0.55;0.50;;;;;;;;;;5030984;28;20045;-63
2022/08/14 14:48:43;;;;;;;1.50;0.70;;;;;;;;;;5031333;28;20059;-62
2022/08/14 14:51:13;;;;;;;1.05;0.52;;;;;;;;;;5031757;28;20128;-62
2022/08/14 14:53:42;;;;;;;1.25;0.50;;;;;;;;;;5031508;28;20081;-62
2022/08/14 14:56:12;;;;;;;2.28;1.38;;;;;;;;;;5031412;28;20574;-62
2022/08/14 14:58:58;;;;;;;1.67;0.60;;;;;;;;;;5031565;28;20428;-62
2022/08/14 15:01:25;;;;;;;1.52;0.50;;;;;;;;;;5031625;28;20049;-62
2022/08/14 15:03:53;;;;;;;1.17;0.50;;;;;;;;;;5031681;28;20059;-62
2022/08/14 15:06:20;;;;;;;0.50;0.50;;;;;;;;;;5030810;28;20518;-63
2022/08/14 15:08:54;;;;;;;1.02;0.40;;;;;;;;;;5031277;28;20162;-64
2022/08/14 15:11:25;;;;;;;1.60;0.70;;;;;;;;;;5030644;28;20080;-63
2022/08/14 15:13:57;;;;;;;2.10;0.68;;;;;;;;;;5030347;28;20049;-62
2022/08/14 15:16:25;;;;;;;1.20;0.60;;;;;;;;;;5030755;28;20045;-63
2022/08/14 15:18:52;;;;;;;1.02;0.65;;;;;;;;;;5031240;28;20553;-63
2022/08/14 15:21:19;;;;;;;3.00;0.88;;;;;;;;;;5030658;28;20073;-64
2022/08/14 15:23:46;;;;;;;0.50;0.50;;;;;;;;;;5029089;28;20493;-64
2022/08/14 15:26:14;;;;;;;1.80;0.63;;;;;;;;;;5031100;28;20054;-63
2022/08/14 15:29:04;;;;;;;1.08;0.65;;;;;;;;;;5031576;28;20060;-62
2022/08/14 15:31:32;;;;;;;1.05;0.73;;;;;;;;;;5030180;28;20060;-63
2022/08/14 15:34:12;;;;;;;1.75;0.40;;;;;;;;;;5031446;28;20052;-63